sensor_id;sensor_type;location;lat;lon;timestamp;P1;durP1;ratioP1;P2;durP2;ratioP2
77423;SDS011;66494;47.172;14.678;2023-04-15T00:00:42;0.30;;;0.27;;
77423;SDS011;66494;47.172;14.678;2023-04-15T00:01:42;1.27;;;0.57;;
77423;SDS011;66494;47.172;14.678;2023-04-15T00:02:42;1.38;;;0.52;;
77423;SDS011;66494;47.172;14.678;2023-04-15T00:03:43;0.55;;;0.20;;
77423;SDS011;66494;47.172;14.678;2023-04-15T00:04:46;0.85;;;0.30;;
77423;SDS011;66494;47.172;14.678;2023-04-15T00:05:47;0.43;;;0.30;;
77423;SDS011;66494;47.172;14.678;2023-04-15T00:07:47;0.70;;;0.32;;
77423;SDS011;66494;47.172;14.678;2023-04-15T00:08:47;1.02;;;0.60;;
77423;SDS011;66494;47.172;14.678;2023-04-15T00:09:48;1.05;;;0.22;;
77423;SDS011;66494;47.172;14.678;2023-04-15T00:10:48;0.73;;;0.35;;
77423;SDS011;66494;47.172;14.678;2023-04-15T00:11:49;0.55;;;0.30;;
77423;SDS011;66494;47.172;14.678;2023-04-15T00:12:49;0.38;;;0.10;;
77423;SDS011;66494;47.172;14.678;2023-04-15T00:13:49;0.65;;;0.30;;
77423;SDS011;66494;47.172;14.678;2023-04-15T00:14:50;1.00;;;0.35;;
77423;SDS011;66494;47.172;14.678;2023-04-15T00:15:50;0.52;;;0.32;;
77423;SDS011;66494;47.172;14.678;2023-04-15T00:16:51;1.48;;;0.40;;
77423;SDS011;66494;47.172;14.678;2023-04-15T00:17:55;0.90;;;0.40;;
77423;SDS011;66494;47.172;14.678;2023-04-15T00:19:55;0.88;;;0.50;;
77423;SDS011;66494;47.172;14.678;2023-04-15T00:20:56;0.40;;;0.20;;
77423;SDS011;66494;47.172;14.678;2023-04-15T00:21:56;0.90;;;0.30;;
77423;SDS011;66494;47.172;14.678;2023-04-15T00:22:56;1.35;;;0.50;;
77423;SDS011;66494;47.172;14.678;2023-04-15T00:23:59;0.65;;;0.35;;
77423;SDS011;66494;47.172;14.678;2023-04-15T00:26:00;0.70;;;0.32;;
77423;SDS011;66494;47.172;14.678;2023-04-15T00:27:00;0.70;;;0.28;;
77423;SDS011;66494;47.172;14.678;2023-04-15T00:28:00;0.98;;;0.45;;
77423;SDS011;66494;47.172;14.678;2023-04-15T00:29:01;2.13;;;1.02;;
77423;SDS011;66494;47.172;14.678;2023-04-15T00:30:01;2.38;;;1.20;;
77423;SDS011;66494;47.172;14.678;2023-04-15T00:31:03;2.60;;;1.27;;
77423;SDS011;66494;47.172;14.678;2023-04-15T00:33:03;2.97;;;0.82;;
77423;SDS011;66494;47.172;14.678;2023-04-15T00:34:03;2.35;;;1.08;;
77423;SDS011;66494;47.172;14.678;2023-04-15T00:35:04;1.42;;;0.40;;
77423;SDS011;66494;47.172;14.678;2023-04-15T00:36:05;1.98;;;0.50;;
77423;SDS011;66494;47.172;14.678;2023-04-15T00:37:05;0.70;;;0.32;;
77423;SDS011;66494;47.172;14.678;2023-04-15T00:39:07;1.58;;;0.60;;
77423;SDS011;66494;47.172;14.678;2023-04-15T00:41:08;0.68;;;0.28;;
77423;SDS011;66494;47.172;14.678;2023-04-15T00:42:09;2.20;;;0.32;;
77423;SDS011;66494;47.172;14.678;2023-04-15T00:43:09;0.52;;;0.20;;
77423;SDS011;66494;47.172;14.678;2023-04-15T00:44:10;0.85;;;0.52;;
77423;SDS011;66494;47.172;14.678;2023-04-15T00:45:10;1.00;;;0.45;;
77423;SDS011;66494;47.172;14.678;2023-04-15T00:46:11;0.60;;;0.38;;
77423;SDS011;66494;47.172;14.678;2023-04-15T00:47:13;1.45;;;0.30;;
77423;SDS011;66494;47.172;14.678;2023-04-15T00:49:14;0.80;;;0.40;;
77423;SDS011;66494;47.172;14.678;2023-04-15T00:50:14;0.38;;;0.20;;
77423;SDS011;66494;47.172;14.678;2023-04-15T00:51:15;0.50;;;0.20;;
77423;SDS011;66494;47.172;14.678;2023-04-15T00:52:15;0.35;;;0.20;;
77423;SDS011;66494;47.172;14.678;2023-04-15T00:53:15;0.30;;;0.20;;
77423;SDS011;66494;47.172;14.678;2023-04-15T00:54:16;0.30;;;0.22;;
77423;SDS011;66494;47.172;14.678;2023-04-15T00:55:16;1.00;;;0.30;;
77423;SDS011;66494;47.172;14.678;2023-04-15T00:56:19;0.45;;;0.30;;
77423;SDS011;66494;47.172;14.678;2023-04-15T00:57:20;0.17;;;0.10;;
77423;SDS011;66494;47.172;14.678;2023-04-15T00:59:21;0.43;;;0.20;;
77423;SDS011;66494;47.172;14.678;2023-04-15T01:00:22;0.40;;;0.10;;
77423;SDS011;66494;47.172;14.678;2023-04-15T01:01:23;0.32;;;0.20;;
77423;SDS011;66494;47.172;14.678;2023-04-15T01:03:24;0.20;;;0.10;;
77423;SDS011;66494;47.172;14.678;2023-04-15T01:04:24;0.70;;;0.22;;
77423;SDS011;66494;47.172;14.678;2023-04-15T01:05:25;0.30;;;0.20;;
77423;SDS011;66494;47.172;14.678;2023-04-15T01:06:26;0.45;;;0.22;;
77423;SDS011;66494;47.172;14.678;2023-04-15T01:07:26;1.10;;;0.32;;
77423;SDS011;66494;47.172;14.678;2023-04-15T01:08:29;0.57;;;0.20;;
77423;SDS011;66494;47.172;14.678;2023-04-15T01:09:29;0.95;;;0.25;;
77423;SDS011;66494;47.172;14.678;2023-04-15T01:10:30;0.22;;;0.20;;
77423;SDS011;66494;47.172;14.678;2023-04-15T01:11:31;0.77;;;0.22;;
77423;SDS011;66494;47.172;14.678;2023-04-15T01:12:33;0.63;;;0.30;;
77423;SDS011;66494;47.172;14.678;2023-04-15T01:14:34;0.47;;;0.40;;
77423;SDS011;66494;47.172;14.678;2023-04-15T01:15:34;0.65;;;0.20;;
77423;SDS011;66494;47.172;14.678;2023-04-15T01:16:35;0.50;;;0.22;;
77423;SDS011;66494;47.172;14.678;2023-04-15T01:17:38;0.30;;;0.20;;
77423;SDS011;66494;47.172;14.678;2023-04-15T01:19:39;0.40;;;0.30;;
77423;SDS011;66494;47.172;14.678;2023-04-15T01:20:39;3.90;;;2.22;;
77423;SDS011;66494;47.172;14.678;2023-04-15T01:21:40;6.00;;;2.85;;
77423;SDS011;66494;47.172;14.678;2023-04-15T01:22:40;3.08;;;1.08;;
77423;SDS011;66494;47.172;14.678;2023-04-15T01:23:40;1.20;;;0.50;;
77423;SDS011;66494;47.172;14.678;2023-04-15T01:24:45;1.08;;;0.20;;
77423;SDS011;66494;47.172;14.678;2023-04-15T01:25:49;0.73;;;0.30;;
77423;SDS011;66494;47.172;14.678;2023-04-15T01:26:50;0.28;;;0.20;;
77423;SDS011;66494;47.172;14.678;2023-04-15T01:28:51;0.90;;;0.20;;
77423;SDS011;66494;47.172;14.678;2023-04-15T01:29:51;1.08;;;0.30;;
77423;SDS011;66494;47.172;14.678;2023-04-15T01:31:04;0.45;;;0.30;;
77423;SDS011;66494;47.172;14.678;2023-04-15T01:32:04;0.28;;;0.20;;
77423;SDS011;66494;47.172;14.678;2023-04-15T01:34:06;0.10;;;0.10;;
77423;SDS011;66494;47.172;14.678;2023-04-15T01:35:06;0.15;;;0.10;;
77423;SDS011;66494;47.172;14.678;2023-04-15T01:36:08;1.90;;;0.30;;
77423;SDS011;66494;47.172;14.678;2023-04-15T01:37:09;1.55;;;0.20;;
77423;SDS011;66494;47.172;14.678;2023-04-15T01:39:09;0.30;;;0.28;;
77423;SDS011;66494;47.172;14.678;2023-04-15T01:40:10;0.68;;;0.30;;
77423;SDS011;66494;47.172;14.678;2023-04-15T01:41:10;0.32;;;0.20;;
77423;SDS011;66494;47.172;14.678;2023-04-15T01:42:10;0.82;;;0.35;;
77423;SDS011;66494;47.172;14.678;2023-04-15T01:43:10;1.92;;;0.40;;
77423;SDS011;66494;47.172;14.678;2023-04-15T01:44:11;0.73;;;0.10;;
77423;SDS011;66494;47.172;14.678;2023-04-15T01:45:11;0.30;;;0.20;;
77423;SDS011;66494;47.172;14.678;2023-04-15T01:46:14;0.50;;;0.17;;
77423;SDS011;66494;47.172;14.678;2023-04-15T01:48:15;0.40;;;0.15;;
77423;SDS011;66494;47.172;14.678;2023-04-15T01:49:15;0.32;;;0.10;;
77423;SDS011;66494;47.172;14.678;2023-04-15T01:50:16;1.45;;;0.47;;
77423;SDS011;66494;47.172;14.678;2023-04-15T01:51:16;0.45;;;0.40;;
77423;SDS011;66494;47.172;14.678;2023-04-15T01:52:16;0.40;;;0.20;;
77423;SDS011;66494;47.172;14.678;2023-04-15T01:53:17;0.95;;;0.45;;
77423;SDS011;66494;47.172;14.678;2023-04-15T01:54:17;0.45;;;0.20;;
77423;SDS011;66494;47.172;14.678;2023-04-15T01:55:17;2.10;;;0.38;;
77423;SDS011;66494;47.172;14.678;2023-04-15T01:56:18;1.17;;;0.45;;
77423;SDS011;66494;47.172;14.678;2023-04-15T01:57:18;0.47;;;0.20;;
77423;SDS011;66494;47.172;14.678;2023-04-15T01:58:18;0.50;;;0.40;;
77423;SDS011;66494;47.172;14.678;2023-04-15T01:59:19;1.08;;;0.30;;
77423;SDS011;66494;47.172;14.678;2023-04-15T02:01:19;0.50;;;0.30;;
77423;SDS011;66494;47.172;14.678;2023-04-15T02:02:20;0.60;;;0.20;;
77423;SDS011;66494;47.172;14.678;2023-04-15T02:03:20;2.70;;;0.30;;
77423;SDS011;66494;47.172;14.678;2023-04-15T02:04:21;1.20;;;0.40;;
77423;SDS011;66494;47.172;14.678;2023-04-15T02:05:21;1.42;;;0.43;;
77423;SDS011;66494;47.172;14.678;2023-04-15T02:06:22;0.20;;;0.10;;
77423;SDS011;66494;47.172;14.678;2023-04-15T02:07:22;0.70;;;0.35;;
77423;SDS011;66494;47.172;14.678;2023-04-15T02:08:23;0.32;;;0.20;;
77423;SDS011;66494;47.172;14.678;2023-04-15T02:10:23;0.85;;;0.20;;
77423;SDS011;66494;47.172;14.678;2023-04-15T02:11:24;0.55;;;0.30;;
77423;SDS011;66494;47.172;14.678;2023-04-15T02:12:24;0.30;;;0.10;;
77423;SDS011;66494;47.172;14.678;2023-04-15T02:13:25;1.88;;;0.40;;
77423;SDS011;66494;47.172;14.678;2023-04-15T02:14:25;0.40;;;0.20;;
77423;SDS011;66494;47.172;14.678;2023-04-15T02:15:26;0.50;;;0.28;;
77423;SDS011;66494;47.172;14.678;2023-04-15T02:16:26;0.52;;;0.22;;
77423;SDS011;66494;47.172;14.678;2023-04-15T02:17:26;0.85;;;0.68;;
77423;SDS011;66494;47.172;14.678;2023-04-15T02:18:26;0.32;;;0.20;;
77423;SDS011;66494;47.172;14.678;2023-04-15T02:19:27;0.65;;;0.10;;
77423;SDS011;66494;47.172;14.678;2023-04-15T02:20:27;1.17;;;0.30;;
77423;SDS011;66494;47.172;14.678;2023-04-15T02:21:29;0.35;;;0.20;;
77423;SDS011;66494;47.172;14.678;2023-04-15T02:22:29;0.40;;;0.20;;
77423;SDS011;66494;47.172;14.678;2023-04-15T02:24:30;0.35;;;0.25;;
77423;SDS011;66494;47.172;14.678;2023-04-15T02:26:30;1.02;;;0.20;;
77423;SDS011;66494;47.172;14.678;2023-04-15T02:27:34;0.82;;;0.55;;
77423;SDS011;66494;47.172;14.678;2023-04-15T02:28:35;1.10;;;0.30;;
77423;SDS011;66494;47.172;14.678;2023-04-15T02:30:36;0.30;;;0.23;;
77423;SDS011;66494;47.172;14.678;2023-04-15T02:31:36;1.20;;;0.57;;
77423;SDS011;66494;47.172;14.678;2023-04-15T02:32:39;1.60;;;0.70;;
77423;SDS011;66494;47.172;14.678;2023-04-15T02:34:40;1.63;;;0.50;;
77423;SDS011;66494;47.172;14.678;2023-04-15T02:35:41;3.25;;;0.82;;
77423;SDS011;66494;47.172;14.678;2023-04-15T02:36:44;2.05;;;0.93;;
77423;SDS011;66494;47.172;14.678;2023-04-15T02:37:46;2.55;;;0.85;;
77423;SDS011;66494;47.172;14.678;2023-04-15T02:39:46;1.63;;;0.50;;
77423;SDS011;66494;47.172;14.678;2023-04-15T02:40:47;0.73;;;0.30;;
77423;SDS011;66494;47.172;14.678;2023-04-15T02:41:48;1.70;;;0.77;;
77423;SDS011;66494;47.172;14.678;2023-04-15T02:42:52;0.73;;;0.40;;
77423;SDS011;66494;47.172;14.678;2023-04-15T02:43:52;1.08;;;0.60;;
77423;SDS011;66494;47.172;14.678;2023-04-15T02:44:52;0.98;;;0.70;;
77423;SDS011;66494;47.172;14.678;2023-04-15T02:45:53;1.85;;;0.93;;
77423;SDS011;66494;47.172;14.678;2023-04-15T02:47:54;1.67;;;0.68;;
77423;SDS011;66494;47.172;14.678;2023-04-15T02:48:54;1.98;;;0.82;;
77423;SDS011;66494;47.172;14.678;2023-04-15T02:49:55;2.03;;;0.80;;
77423;SDS011;66494;47.172;14.678;2023-04-15T02:51:11;2.50;;;0.38;;
77423;SDS011;66494;47.172;14.678;2023-04-15T02:52:12;2.05;;;1.05;;
77423;SDS011;66494;47.172;14.678;2023-04-15T02:53:12;1.05;;;0.45;;
77423;SDS011;66494;47.172;14.678;2023-04-15T02:55:13;2.05;;;0.40;;
77423;SDS011;66494;47.172;14.678;2023-04-15T02:56:14;0.80;;;0.40;;
77423;SDS011;66494;47.172;14.678;2023-04-15T02:57:15;1.60;;;0.50;;
77423;SDS011;66494;47.172;14.678;2023-04-15T02:58:16;1.13;;;0.40;;
77423;SDS011;66494;47.172;14.678;2023-04-15T02:59:16;0.70;;;0.40;;
77423;SDS011;66494;47.172;14.678;2023-04-15T03:00:16;0.52;;;0.40;;
77423;SDS011;66494;47.172;14.678;2023-04-15T03:01:16;0.60;;;0.30;;
77423;SDS011;66494;47.172;14.678;2023-04-15T03:02:17;0.95;;;0.43;;
77423;SDS011;66494;47.172;14.678;2023-04-15T03:03:17;0.98;;;0.43;;
77423;SDS011;66494;47.172;14.678;2023-04-15T03:04:17;0.28;;;0.20;;
77423;SDS011;66494;47.172;14.678;2023-04-15T03:05:17;1.85;;;0.38;;
77423;SDS011;66494;47.172;14.678;2023-04-15T03:06:18;1.38;;;0.57;;
77423;SDS011;66494;47.172;14.678;2023-04-15T03:07:18;1.98;;;0.47;;
77423;SDS011;66494;47.172;14.678;2023-04-15T03:08:18;1.00;;;0.50;;
77423;SDS011;66494;47.172;14.678;2023-04-15T03:10:20;1.17;;;0.30;;
77423;SDS011;66494;47.172;14.678;2023-04-15T03:11:20;0.60;;;0.40;;
77423;SDS011;66494;47.172;14.678;2023-04-15T03:12:20;2.05;;;0.20;;
77423;SDS011;66494;47.172;14.678;2023-04-15T03:13:20;0.88;;;0.40;;
77423;SDS011;66494;47.172;14.678;2023-04-15T03:14:21;1.52;;;0.63;;
77423;SDS011;66494;47.172;14.678;2023-04-15T03:15:21;1.00;;;0.30;;
77423;SDS011;66494;47.172;14.678;2023-04-15T03:16:22;1.05;;;0.25;;
77423;SDS011;66494;47.172;14.678;2023-04-15T03:17:22;0.00;;;0.00;;
77423;SDS011;66494;47.172;14.678;2023-04-15T03:18:22;0.30;;;0.20;;
77423;SDS011;66494;47.172;14.678;2023-04-15T03:19:22;1.10;;;0.20;;
77423;SDS011;66494;47.172;14.678;2023-04-15T03:20:23;0.35;;;0.20;;
77423;SDS011;66494;47.172;14.678;2023-04-15T03:21:23;0.28;;;0.20;;
77423;SDS011;66494;47.172;14.678;2023-04-15T03:22:23;0.73;;;0.43;;
77423;SDS011;66494;47.172;14.678;2023-04-15T03:23:25;1.13;;;1.02;;
77423;SDS011;66494;47.172;14.678;2023-04-15T03:24:25;1.20;;;0.95;;
77423;SDS011;66494;47.172;14.678;2023-04-15T03:25:26;1.95;;;0.70;;
77423;SDS011;66494;47.172;14.678;2023-04-15T03:26:29;0.77;;;0.65;;
77423;SDS011;66494;47.172;14.678;2023-04-15T03:27:30;0.73;;;0.30;;
77423;SDS011;66494;47.172;14.678;2023-04-15T03:29:31;0.73;;;0.50;;
77423;SDS011;66494;47.172;14.678;2023-04-15T03:30:31;0.70;;;0.40;;
77423;SDS011;66494;47.172;14.678;2023-04-15T03:32:32;0.65;;;0.40;;
77423;SDS011;66494;47.172;14.678;2023-04-15T03:33:32;0.60;;;0.32;;
77423;SDS011;66494;47.172;14.678;2023-04-15T03:34:32;3.55;;;0.40;;
77423;SDS011;66494;47.172;14.678;2023-04-15T03:35:33;0.90;;;0.43;;
77423;SDS011;66494;47.172;14.678;2023-04-15T03:36:33;4.07;;;0.55;;
77423;SDS011;66494;47.172;14.678;2023-04-15T03:37:33;0.60;;;0.40;;
77423;SDS011;66494;47.172;14.678;2023-04-15T03:38:34;0.75;;;0.40;;
77423;SDS011;66494;47.172;14.678;2023-04-15T03:40:34;0.60;;;0.13;;
77423;SDS011;66494;47.172;14.678;2023-04-15T03:41:35;0.90;;;0.30;;
77423;SDS011;66494;47.172;14.678;2023-04-15T03:42:35;0.50;;;0.40;;
77423;SDS011;66494;47.172;14.678;2023-04-15T03:43:36;0.43;;;0.30;;
77423;SDS011;66494;47.172;14.678;2023-04-15T03:44:36;5.63;;;2.58;;
77423;SDS011;66494;47.172;14.678;2023-04-15T03:45:36;2.15;;;1.45;;
77423;SDS011;66494;47.172;14.678;2023-04-15T03:46:36;1.13;;;0.70;;
77423;SDS011;66494;47.172;14.678;2023-04-15T03:47:37;0.32;;;0.25;;
77423;SDS011;66494;47.172;14.678;2023-04-15T03:48:37;0.55;;;0.40;;
77423;SDS011;66494;47.172;14.678;2023-04-15T03:49:37;0.82;;;0.32;;
77423;SDS011;66494;47.172;14.678;2023-04-15T03:50:37;0.40;;;0.20;;
77423;SDS011;66494;47.172;14.678;2023-04-15T03:51:38;0.30;;;0.20;;
77423;SDS011;66494;47.172;14.678;2023-04-15T03:52:38;0.70;;;0.22;;
77423;SDS011;66494;47.172;14.678;2023-04-15T03:53:38;0.73;;;0.30;;
77423;SDS011;66494;47.172;14.678;2023-04-15T03:54:38;0.40;;;0.15;;
77423;SDS011;66494;47.172;14.678;2023-04-15T03:55:38;0.30;;;0.15;;
77423;SDS011;66494;47.172;14.678;2023-04-15T03:56:39;0.45;;;0.20;;
77423;SDS011;66494;47.172;14.678;2023-04-15T03:57:39;0.43;;;0.22;;
77423;SDS011;66494;47.172;14.678;2023-04-15T03:58:40;1.98;;;0.38;;
77423;SDS011;66494;47.172;14.678;2023-04-15T03:59:40;0.88;;;0.47;;
77423;SDS011;66494;47.172;14.678;2023-04-15T04:00:41;0.50;;;0.35;;
77423;SDS011;66494;47.172;14.678;2023-04-15T04:01:41;1.08;;;0.47;;
77423;SDS011;66494;47.172;14.678;2023-04-15T04:02:41;0.30;;;0.25;;
77423;SDS011;66494;47.172;14.678;2023-04-15T04:03:41;0.65;;;0.20;;
77423;SDS011;66494;47.172;14.678;2023-04-15T04:04:42;0.75;;;0.40;;
77423;SDS011;66494;47.172;14.678;2023-04-15T04:05:42;0.52;;;0.30;;
77423;SDS011;66494;47.172;14.678;2023-04-15T04:06:43;0.52;;;0.32;;
77423;SDS011;66494;47.172;14.678;2023-04-15T04:07:43;0.43;;;0.20;;
77423;SDS011;66494;47.172;14.678;2023-04-15T04:08:43;1.23;;;0.30;;
77423;SDS011;66494;47.172;14.678;2023-04-15T04:09:44;0.47;;;0.32;;
77423;SDS011;66494;47.172;14.678;2023-04-15T04:10:44;0.47;;;0.30;;
77423;SDS011;66494;47.172;14.678;2023-04-15T04:11:45;0.28;;;0.20;;
77423;SDS011;66494;47.172;14.678;2023-04-15T04:12:45;0.20;;;0.20;;
77423;SDS011;66494;47.172;14.678;2023-04-15T04:13:45;1.25;;;0.20;;
77423;SDS011;66494;47.172;14.678;2023-04-15T04:14:46;0.63;;;0.20;;
77423;SDS011;66494;47.172;14.678;2023-04-15T04:16:46;0.77;;;0.17;;
77423;SDS011;66494;47.172;14.678;2023-04-15T04:17:46;0.22;;;0.20;;
77423;SDS011;66494;47.172;14.678;2023-04-15T04:18:46;0.65;;;0.40;;
77423;SDS011;66494;47.172;14.678;2023-04-15T04:19:47;2.55;;;0.30;;
77423;SDS011;66494;47.172;14.678;2023-04-15T04:20:47;0.80;;;0.30;;
77423;SDS011;66494;47.172;14.678;2023-04-15T04:21:47;0.28;;;0.17;;
77423;SDS011;66494;47.172;14.678;2023-04-15T04:22:47;0.55;;;0.20;;
77423;SDS011;66494;47.172;14.678;2023-04-15T04:23:47;0.38;;;0.20;;
77423;SDS011;66494;47.172;14.678;2023-04-15T04:24:48;1.10;;;0.30;;
77423;SDS011;66494;47.172;14.678;2023-04-15T04:25:48;0.95;;;0.43;;
77423;SDS011;66494;47.172;14.678;2023-04-15T04:26:48;2.85;;;0.80;;
77423;SDS011;66494;47.172;14.678;2023-04-15T04:27:48;0.52;;;0.30;;
77423;SDS011;66494;47.172;14.678;2023-04-15T04:28:49;2.88;;;0.50;;
77423;SDS011;66494;47.172;14.678;2023-04-15T04:29:49;1.13;;;0.40;;
77423;SDS011;66494;47.172;14.678;2023-04-15T04:30:50;1.08;;;0.40;;
77423;SDS011;66494;47.172;14.678;2023-04-15T04:32:50;0.70;;;0.47;;
77423;SDS011;66494;47.172;14.678;2023-04-15T04:33:51;0.82;;;0.30;;
77423;SDS011;66494;47.172;14.678;2023-04-15T04:35:51;0.95;;;0.30;;
77423;SDS011;66494;47.172;14.678;2023-04-15T04:36:51;0.30;;;0.20;;
77423;SDS011;66494;47.172;14.678;2023-04-15T04:37:51;1.20;;;0.40;;
77423;SDS011;66494;47.172;14.678;2023-04-15T04:38:52;0.63;;;0.20;;
77423;SDS011;66494;47.172;14.678;2023-04-15T04:39:52;0.95;;;0.30;;
77423;SDS011;66494;47.172;14.678;2023-04-15T04:40:53;0.63;;;0.40;;
77423;SDS011;66494;47.172;14.678;2023-04-15T04:41:53;0.43;;;0.17;;
77423;SDS011;66494;47.172;14.678;2023-04-15T04:42:53;0.82;;;0.35;;
77423;SDS011;66494;47.172;14.678;2023-04-15T04:43:53;0.70;;;0.43;;
77423;SDS011;66494;47.172;14.678;2023-04-15T04:45:54;1.95;;;0.82;;
77423;SDS011;66494;47.172;14.678;2023-04-15T04:47:54;1.75;;;0.52;;
77423;SDS011;66494;47.172;14.678;2023-04-15T04:49:55;0.75;;;0.40;;
77423;SDS011;66494;47.172;14.678;2023-04-15T04:50:55;1.10;;;0.60;;
77423;SDS011;66494;47.172;14.678;2023-04-15T04:51:55;2.13;;;0.70;;
77423;SDS011;66494;47.172;14.678;2023-04-15T04:52:56;2.15;;;0.63;;
77423;SDS011;66494;47.172;14.678;2023-04-15T04:53:56;2.92;;;0.80;;
77423;SDS011;66494;47.172;14.678;2023-04-15T04:54:56;51.30;;;18.50;;
77423;SDS011;66494;47.172;14.678;2023-04-15T04:55:57;68.20;;;22.88;;
77423;SDS011;66494;47.172;14.678;2023-04-15T04:56:57;28.08;;;9.00;;
77423;SDS011;66494;47.172;14.678;2023-04-15T04:57:57;18.40;;;5.75;;
77423;SDS011;66494;47.172;14.678;2023-04-15T04:58:58;15.02;;;5.18;;
77423;SDS011;66494;47.172;14.678;2023-04-15T04:59:58;3.92;;;1.83;;
77423;SDS011;66494;47.172;14.678;2023-04-15T05:00:58;2.80;;;1.05;;
77423;SDS011;66494;47.172;14.678;2023-04-15T05:02:58;4.38;;;1.45;;
77423;SDS011;66494;47.172;14.678;2023-04-15T05:03:59;19.42;;;7.05;;
77423;SDS011;66494;47.172;14.678;2023-04-15T05:04:59;21.00;;;6.35;;
77423;SDS011;66494;47.172;14.678;2023-04-15T05:06:00;12.43;;;5.25;;
77423;SDS011;66494;47.172;14.678;2023-04-15T05:07:02;10.35;;;4.32;;
77423;SDS011;66494;47.172;14.678;2023-04-15T05:09:02;9.75;;;3.67;;
77423;SDS011;66494;47.172;14.678;2023-04-15T05:10:02;7.07;;;3.15;;
77423;SDS011;66494;47.172;14.678;2023-04-15T05:11:03;6.95;;;2.03;;
77423;SDS011;66494;47.172;14.678;2023-04-15T05:12:03;2.05;;;1.00;;
77423;SDS011;66494;47.172;14.678;2023-04-15T05:14:04;1.70;;;1.08;;
77423;SDS011;66494;47.172;14.678;2023-04-15T05:16:04;2.38;;;0.75;;
77423;SDS011;66494;47.172;14.678;2023-04-15T05:17:05;2.33;;;1.10;;
77423;SDS011;66494;47.172;14.678;2023-04-15T05:18:05;2.35;;;0.70;;
77423;SDS011;66494;47.172;14.678;2023-04-15T05:19:06;1.73;;;0.82;;
77423;SDS011;66494;47.172;14.678;2023-04-15T05:20:07;1.73;;;0.85;;
77423;SDS011;66494;47.172;14.678;2023-04-15T05:21:07;0.85;;;0.60;;
77423;SDS011;66494;47.172;14.678;2023-04-15T05:22:07;2.22;;;0.65;;
77423;SDS011;66494;47.172;14.678;2023-04-15T05:23:07;1.95;;;0.80;;
77423;SDS011;66494;47.172;14.678;2023-04-15T05:24:08;1.42;;;0.60;;
77423;SDS011;66494;47.172;14.678;2023-04-15T05:25:08;1.00;;;0.60;;
77423;SDS011;66494;47.172;14.678;2023-04-15T05:27:08;1.50;;;0.95;;
77423;SDS011;66494;47.172;14.678;2023-04-15T05:28:10;2.30;;;0.90;;
77423;SDS011;66494;47.172;14.678;2023-04-15T05:30:11;1.30;;;0.60;;
77423;SDS011;66494;47.172;14.678;2023-04-15T05:31:12;2.33;;;1.00;;
77423;SDS011;66494;47.172;14.678;2023-04-15T05:33:12;1.10;;;0.65;;
77423;SDS011;66494;47.172;14.678;2023-04-15T05:34:13;1.67;;;0.65;;
77423;SDS011;66494;47.172;14.678;2023-04-15T05:35:14;1.30;;;0.63;;
77423;SDS011;66494;47.172;14.678;2023-04-15T05:37:15;1.10;;;0.73;;
77423;SDS011;66494;47.172;14.678;2023-04-15T05:38:15;2.22;;;0.90;;
77423;SDS011;66494;47.172;14.678;2023-04-15T05:39:16;1.52;;;1.00;;
77423;SDS011;66494;47.172;14.678;2023-04-15T05:40:16;1.80;;;0.93;;
77423;SDS011;66494;47.172;14.678;2023-04-15T05:41:16;3.70;;;1.00;;
77423;SDS011;66494;47.172;14.678;2023-04-15T05:42:16;1.75;;;1.00;;
77423;SDS011;66494;47.172;14.678;2023-04-15T05:43:17;2.35;;;1.27;;
77423;SDS011;66494;47.172;14.678;2023-04-15T05:44:17;1.05;;;0.73;;
77423;SDS011;66494;47.172;14.678;2023-04-15T05:45:17;1.70;;;1.10;;
77423;SDS011;66494;47.172;14.678;2023-04-15T05:46:17;1.92;;;1.10;;
77423;SDS011;66494;47.172;14.678;2023-04-15T05:47:18;1.85;;;1.40;;
77423;SDS011;66494;47.172;14.678;2023-04-15T05:48:18;2.25;;;1.42;;
77423;SDS011;66494;47.172;14.678;2023-04-15T05:49:18;1.83;;;1.20;;
77423;SDS011;66494;47.172;14.678;2023-04-15T05:50:19;2.05;;;1.42;;
77423;SDS011;66494;47.172;14.678;2023-04-15T05:51:19;1.95;;;1.20;;
77423;SDS011;66494;47.172;14.678;2023-04-15T05:52:20;2.08;;;1.33;;
77423;SDS011;66494;47.172;14.678;2023-04-15T05:53:20;2.40;;;1.33;;
77423;SDS011;66494;47.172;14.678;2023-04-15T05:54:20;1.65;;;1.13;;
77423;SDS011;66494;47.172;14.678;2023-04-15T05:55:22;1.92;;;1.48;;
77423;SDS011;66494;47.172;14.678;2023-04-15T05:57:22;2.55;;;1.73;;
77423;SDS011;66494;47.172;14.678;2023-04-15T05:58:22;2.65;;;2.03;;
77423;SDS011;66494;47.172;14.678;2023-04-15T05:59:23;3.17;;;1.95;;
77423;SDS011;66494;47.172;14.678;2023-04-15T06:00:23;3.92;;;1.83;;
77423;SDS011;66494;47.172;14.678;2023-04-15T06:02:24;2.42;;;1.90;;
77423;SDS011;66494;47.172;14.678;2023-04-15T06:03:25;5.55;;;2.72;;
77423;SDS011;66494;47.172;14.678;2023-04-15T06:04:25;7.13;;;2.65;;
77423;SDS011;66494;47.172;14.678;2023-04-15T06:05:26;3.55;;;2.25;;
77423;SDS011;66494;47.172;14.678;2023-04-15T06:06:26;7.43;;;2.63;;
77423;SDS011;66494;47.172;14.678;2023-04-15T06:07:27;4.70;;;2.90;;
77423;SDS011;66494;47.172;14.678;2023-04-15T06:08:27;5.30;;;3.25;;
77423;SDS011;66494;47.172;14.678;2023-04-15T06:09:27;4.32;;;2.58;;
77423;SDS011;66494;47.172;14.678;2023-04-15T06:10:28;6.00;;;3.40;;
77423;SDS011;66494;47.172;14.678;2023-04-15T06:11:28;5.05;;;3.17;;
77423;SDS011;66494;47.172;14.678;2023-04-15T06:12:28;6.43;;;3.60;;
77423;SDS011;66494;47.172;14.678;2023-04-15T06:13:28;5.47;;;2.88;;
77423;SDS011;66494;47.172;14.678;2023-04-15T06:14:29;7.32;;;3.45;;
77423;SDS011;66494;47.172;14.678;2023-04-15T06:15:29;5.38;;;2.88;;
77423;SDS011;66494;47.172;14.678;2023-04-15T06:16:29;6.05;;;3.42;;
77423;SDS011;66494;47.172;14.678;2023-04-15T06:17:30;7.82;;;2.95;;
77423;SDS011;66494;47.172;14.678;2023-04-15T06:18:30;8.20;;;3.28;;
77423;SDS011;66494;47.172;14.678;2023-04-15T06:19:30;5.13;;;3.17;;
77423;SDS011;66494;47.172;14.678;2023-04-15T06:20:31;7.68;;;3.42;;
77423;SDS011;66494;47.172;14.678;2023-04-15T06:21:31;7.03;;;4.03;;
77423;SDS011;66494;47.172;14.678;2023-04-15T06:22:32;4.50;;;3.20;;
77423;SDS011;66494;47.172;14.678;2023-04-15T06:23:35;7.15;;;3.35;;
77423;SDS011;66494;47.172;14.678;2023-04-15T06:24:35;4.53;;;3.13;;
77423;SDS011;66494;47.172;14.678;2023-04-15T06:25:36;5.15;;;3.15;;
77423;SDS011;66494;47.172;14.678;2023-04-15T06:26:36;4.93;;;3.03;;
77423;SDS011;66494;47.172;14.678;2023-04-15T06:27:36;6.28;;;3.45;;
77423;SDS011;66494;47.172;14.678;2023-04-15T06:28:36;6.88;;;3.80;;
77423;SDS011;66494;47.172;14.678;2023-04-15T06:29:37;5.55;;;3.20;;
77423;SDS011;66494;47.172;14.678;2023-04-15T06:30:37;6.38;;;3.22;;
77423;SDS011;66494;47.172;14.678;2023-04-15T06:31:38;6.28;;;3.50;;
77423;SDS011;66494;47.172;14.678;2023-04-15T06:32:38;7.68;;;3.65;;
77423;SDS011;66494;47.172;14.678;2023-04-15T06:33:38;5.30;;;3.47;;
77423;SDS011;66494;47.172;14.678;2023-04-15T06:34:38;7.05;;;4.07;;
77423;SDS011;66494;47.172;14.678;2023-04-15T06:35:39;6.28;;;3.58;;
77423;SDS011;66494;47.172;14.678;2023-04-15T06:36:40;5.65;;;3.28;;
77423;SDS011;66494;47.172;14.678;2023-04-15T06:37:40;6.97;;;3.47;;
77423;SDS011;66494;47.172;14.678;2023-04-15T06:38:40;6.18;;;3.38;;
77423;SDS011;66494;47.172;14.678;2023-04-15T06:39:40;7.45;;;3.78;;
77423;SDS011;66494;47.172;14.678;2023-04-15T06:41:41;5.87;;;3.50;;
77423;SDS011;66494;47.172;14.678;2023-04-15T06:42:42;5.57;;;2.47;;
77423;SDS011;66494;47.172;14.678;2023-04-15T06:43:42;6.32;;;3.10;;
77423;SDS011;66494;47.172;14.678;2023-04-15T06:44:42;4.80;;;2.78;;